Time,TemperatureF,DewpointF,PressureIn,WindDirection,WindDirectionDegrees,WindSpeedMPH,WindSpeedGustMPH,Humidity,HourlyPrecipIn,Conditions,Clouds,dailyrainin,SoftwareType,DateUTC
2013-11-16 00:07:00,59.6,59.0,30.09,ENE,65,2.0,4.0,96,0.00,,,0.00,weatherlink.com 1.10,2013-11-16 06:07:00,
2013-11-16 00:22:00,59.1,58.0,30.09,ENE,77,1.0,4.0,96,0.00,,,0.00,weatherlink.com 1.10,2013-11-16 06:22:00,
2013-11-16 00:37:00,58.8,58.0,30.09,East,97,2.0,4.0,97,0.00,,,0.00,weatherlink.com 1.10,2013-11-16 06:37:00,
2013-11-16 00:52:00,58.6,58.0,30.09,ENE,76,3.0,5.0,97,0.00,,,0.00,weatherlink.com 1.10,2013-11-16 06:52:00,
2013-11-16 01:07:00,58.7,58.0,30.09,ENE,77,2.0,6.0,97,0.00,,,0.00,weatherlink.com 1.10,2013-11-16 07:07:00,
2013-11-16 01:22:00,58.8,58.0,30.09,ESE,117,4.0,7.0,96,0.00,,,0.00,weatherlink.com 1.10,2013-11-16 07:22:00,
2013-11-16 01:37:00,58.9,58.0,30.09,ENE,60,3.0,6.0,96,0.00,,,0.00,weatherlink.com 1.10,2013-11-16 07:37:00,
2013-11-16 01:52:00,59.0,58.0,30.08,ESE,108,3.0,6.0,97,0.00,,,0.00,weatherlink.com 1.10,2013-11-16 07:52:00,
2013-11-16 02:07:00,59.0,58.0,30.08,ENE,65,4.0,5.0,97,0.00,,,0.00,weatherlink.com 1.10,2013-11-16 08:07:00,
2013-11-16 02:22:00,59.0,58.0,30.08,ENE,70,4.0,8.0,97,0.00,,,0.00,weatherlink.com 1.10,2013-11-16 08:22:00,
2013-11-16 02:37:00,59.0,59.0,30.08,ENE,70,3.0,7.0,98,0.00,,,0.00,weatherlink.com 1.10,2013-11-16 08:37:00,
2013-11-16 02:52:00,59.0,59.0,30.08,East,92,3.0,6.0,98,0.00,,,0.00,weatherlink.com 1.10,2013-11-16 08:52:00,
2013-11-16 03:07:00,59.0,59.0,30.08,ESE,113,5.0,7.0,98,0.00,,,0.00,weatherlink.com 1.10,2013-11-16 09:07:00,
2013-11-16 03:22:00,59.1,59.0,30.08,ENE,60,4.0,6.0,98,0.00,,,0.00,weatherlink.com 1.10,2013-11-16 09:22:00,
2013-11-16 03:37:00,59.1,59.0,30.08,ENE,67,5.0,8.0,98,0.00,,,0.00,weatherlink.com 1.10,2013-11-16 09:37:00,
2013-11-16 03:52:00,59.1,59.0,30.08,ENE,61,5.0,7.0,99,0.00,,,0.00,weatherlink.com 1.10,2013-11-16 09:52:00,
2013-11-16 04:07:00,59.2,59.0,30.08,East,89,3.0,6.0,99,0.00,,,0.00,weatherlink.com 1.10,2013-11-16 10:07:00,
2013-11-16 04:22:00,59.2,59.0,30.08,East,99,3.0,8.0,99,0.00,,,0.00,weatherlink.com 1.10,2013-11-16 10:22:00,
2013-11-16 04:37:00,59.2,59.0,30.08,ESE,113,2.0,7.0,99,0.00,,,0.00,weatherlink.com 1.10,2013-11-16 10:37:00,
2013-11-16 04:52:00,59.2,59.0,30.08,ESE,119,6.0,9.0,99,0.00,,,0.00,weatherlink.com 1.10,2013-11-16 10:52:00,
2013-11-16 05:08:00,59.1,59.0,30.08,SSE,149,5.0,9.0,99,0.00,,,0.00,weatherlink.com 1.10,2013-11-16 11:08:00,
2013-11-16 05:22:00,59.1,59.0,30.08,ENE,73,4.0,6.0,99,0.00,,,0.00,weatherlink.com 1.10,2013-11-16 11:22:00,
2013-11-16 05:37:00,59.1,59.0,30.08,NE,39,4.0,5.0,99,0.00,,,0.00,weatherlink.com 1.10,2013-11-16 11:37:00,
2013-11-16 05:52:00,59.0,59.0,30.09,East,98,5.0,7.0,98,0.00,,,0.00,weatherlink.com 1.10,2013-11-16 11:52:00,
2013-11-16 06:07:00,58.9,58.0,30.09,East,82,3.0,7.0,98,0.00,,,0.00,weatherlink.com 1.10,2013-11-16 12:07:00,
2013-11-16 06:22:00,58.8,58.0,30.09,ENE,77,4.0,8.0,98,0.00,,,0.00,weatherlink.com 1.10,2013-11-16 12:22:00,
2013-11-16 06:37:00,58.7,58.0,30.09,East,83,2.0,6.0,98,0.00,,,0.00,weatherlink.com 1.10,2013-11-16 12:37:00,
2013-11-16 06:52:00,58.7,58.0,30.10,ENE,73,2.0,7.0,98,0.00,,,0.00,weatherlink.com 1.10,2013-11-16 12:52:00,
2013-11-16 07:08:00,58.8,58.0,30.11,ENE,70,2.0,5.0,98,0.00,,,0.00,weatherlink.com 1.10,2013-11-16 13:08:00,
2013-11-16 07:23:00,58.7,58.0,30.11,ENE,76,2.0,5.0,98,0.00,,,0.00,weatherlink.com 1.10,2013-11-16 13:23:00,
2013-11-16 07:38:00,58.9,59.0,30.11,East,87,6.0,7.0,99,0.00,,,0.00,weatherlink.com 1.10,2013-11-16 13:38:00,
2013-11-16 07:53:00,58.9,59.0,30.11,East,96,3.0,6.0,99,0.00,,,0.00,weatherlink.com 1.10,2013-11-16 13:53:00,
2013-11-16 08:08:00,59.2,59.0,30.12,ENE,75,4.0,6.0,99,0.00,,,0.00,weatherlink.com 1.10,2013-11-16 14:08:00,
2013-11-16 08:23:00,59.2,59.0,30.12,ESE,104,3.0,6.0,99,0.00,,,0.00,weatherlink.com 1.10,2013-11-16 14:23:00,
2013-11-16 08:38:00,59.6,59.0,30.13,East,79,4.0,5.0,98,0.00,,,0.00,weatherlink.com 1.10,2013-11-16 14:38:00,
2013-11-16 08:53:00,60.3,60.0,30.13,East,86,2.0,4.0,98,0.00,,,0.00,weatherlink.com 1.10,2013-11-16 14:53:00,
2013-11-16 09:08:00,60.6,60.0,30.14,ESE,108,1.0,5.0,97,0.00,,,0.00,weatherlink.com 1.10,2013-11-16 15:08:00,
2013-11-16 09:23:00,60.9,60.0,30.14,ENE,77,6.0,6.0,97,0.00,,,0.00,weatherlink.com 1.10,2013-11-16 15:23:00,
2013-11-16 09:38:00,61.2,60.0,30.14,East,97,3.0,8.0,96,0.00,,,0.00,weatherlink.com 1.10,2013-11-16 15:38:00,
2013-11-16 09:53:00,61.8,60.0,30.13,ESE,120,2.0,8.0,95,0.00,,,0.00,weatherlink.com 1.10,2013-11-16 15:53:00,
2013-11-16 10:08:00,62.8,61.0,30.13,ESE,102,2.0,6.0,94,0.00,,,0.00,weatherlink.com 1.10,2013-11-16 16:08:00,
2013-11-16 10:23:00,63.2,61.0,30.13,East,95,3.0,7.0,93,0.00,,,0.00,weatherlink.com 1.10,2013-11-16 16:23:00,
2013-11-16 10:38:00,63.8,62.0,30.12,East,84,3.0,8.0,92,0.00,,,0.00,weatherlink.com 1.10,2013-11-16 16:38:00,
2013-11-16 10:53:00,64.7,62.0,30.11,ESE,119,2.0,7.0,92,0.00,,,0.00,weatherlink.com 1.10,2013-11-16 16:53:00,
2013-11-16 11:08:00,65.7,63.0,30.11,NE,49,3.0,6.0,90,0.00,,,0.00,weatherlink.com 1.10,2013-11-16 17:08:00,
2013-11-16 11:23:00,66.7,63.0,30.09,SE,126,3.0,7.0,88,0.00,,,0.00,weatherlink.com 1.10,2013-11-16 17:23:00,
2013-11-16 11:38:00,67.2,63.0,30.09,East,101,2.0,5.0,87,0.00,,,0.00,weatherlink.com 1.10,2013-11-16 17:38:00,
2013-11-16 11:53:00,68.5,64.0,30.09,ENE,77,2.0,5.0,86,0.00,,,0.00,weatherlink.com 1.10,2013-11-16 17:53:00,
2013-11-16 12:08:00,69.7,64.0,30.07,ENE,73,2.0,5.0,83,0.00,,,0.00,weatherlink.com 1.10,2013-11-16 18:08:00,
2013-11-16 12:23:00,70.3,64.0,30.07,ENE,71,5.0,6.0,81,0.00,,,0.00,weatherlink.com 1.10,2013-11-16 18:23:00,
2013-11-16 12:38:00,70.5,64.0,30.06,East,85,0.0,5.0,81,0.00,,,0.00,weatherlink.com 1.10,2013-11-16 18:38:00,
2013-11-16 12:53:00,71.3,65.0,30.05,ENE,72,4.0,6.0,80,0.00,,,0.00,weatherlink.com 1.10,2013-11-16 18:53:00,
2013-11-16 13:09:00,71.2,65.0,30.05,West,263,1.0,3.0,81,0.00,,,0.00,weatherlink.com 1.10,2013-11-16 19:09:00,
2013-11-16 13:24:00,71.1,65.0,30.05,East,90,2.0,4.0,80,0.00,,,0.00,weatherlink.com 1.10,2013-11-16 19:24:00,
2013-11-16 13:39:00,71.6,65.0,30.05,ESE,110,0.0,4.0,79,0.00,,,0.00,weatherlink.com 1.10,2013-11-16 19:39:00,
2013-11-16 13:54:00,72.5,65.0,30.04,East,86,3.0,3.0,78,0.00,,,0.00,weatherlink.com 1.10,2013-11-16 19:54:00,
2013-11-16 14:09:00,72.4,66.0,30.04,SE,145,2.0,3.0,80,0.00,,,0.00,weatherlink.com 1.10,2013-11-16 20:09:00,
2013-11-16 14:24:00,72.3,65.0,30.04,East,100,3.0,5.0,79,0.00,,,0.00,weatherlink.com 1.10,2013-11-16 20:24:00,
2013-11-16 14:39:00,72.4,66.0,30.04,NE,53,1.0,3.0,79,0.00,,,0.00,weatherlink.com 1.10,2013-11-16 20:39:00,
2013-11-16 14:54:00,72.3,66.0,30.04,SE,130,0.0,2.0,80,0.00,,,0.00,weatherlink.com 1.10,2013-11-16 20:54:00,
2013-11-16 15:09:00,72.1,66.0,30.03,East,89,0.0,2.0,82,0.00,,,0.00,weatherlink.com 1.10,2013-11-16 21:09:00,
2013-11-16 15:24:00,72.1,66.0,30.02,East,98,1.0,1.0,80,0.00,,,0.00,weatherlink.com 1.10,2013-11-16 21:24:00,
2013-11-16 15:39:00,71.9,66.0,30.02,NE,56,2.0,3.0,81,0.00,,,0.00,weatherlink.com 1.10,2013-11-16 21:39:00,
2013-11-16 15:54:00,71.8,66.0,30.02,SE,143,0.0,1.0,82,0.00,,,0.00,weatherlink.com 1.10,2013-11-16 21:54:00,
2013-11-16 16:09:00,71.6,67.0,30.03,SE,143,0.0,0.0,84,0.00,,,0.00,weatherlink.com 1.10,2013-11-16 22:09:00,
2013-11-16 16:24:00,71.1,66.0,30.03,SE,143,0.0,0.0,85,0.00,,,0.00,weatherlink.com 1.10,2013-11-16 22:24:00,
2013-11-16 16:39:00,70.2,66.0,30.03,SE,144,0.0,0.0,87,0.00,,,0.00,weatherlink.com 1.10,2013-11-16 22:39:00,
2013-11-16 16:54:00,69.6,66.0,30.03,SE,143,0.0,0.0,88,0.00,,,0.00,weatherlink.com 1.10,2013-11-16 22:54:00,
2013-11-16 17:09:00,68.9,66.0,30.03,SE,143,0.0,0.0,90,0.00,,,0.00,weatherlink.com 1.10,2013-11-16 23:09:00,
2013-11-16 17:24:00,68.5,66.0,30.04,SE,143,0.0,0.0,90,0.00,,,0.00,weatherlink.com 1.10,2013-11-16 23:24:00,
2013-11-16 17:39:00,68.4,66.0,30.04,SE,143,0.0,0.0,91,0.00,,,0.00,weatherlink.com 1.10,2013-11-16 23:39:00,
2013-11-16 17:54:00,68.3,66.0,30.05,SE,143,0.0,0.0,91,0.00,,,0.00,weatherlink.com 1.10,2013-11-16 23:54:00,
2013-11-16 18:09:00,68.1,66.0,30.05,SE,143,0.0,0.0,92,0.00,,,0.00,weatherlink.com 1.10,2013-11-17 00:09:00,
2013-11-16 18:24:00,67.8,66.0,30.05,SE,143,0.0,1.0,93,0.00,,,0.00,weatherlink.com 1.10,2013-11-17 00:24:00,
2013-11-16 18:39:00,67.9,66.0,30.05,ENE,74,0.0,4.0,92,0.00,,,0.00,weatherlink.com 1.10,2013-11-17 00:39:00,
2013-11-16 18:54:00,68.7,66.0,30.05,ENE,77,1.0,3.0,90,0.00,,,0.00,weatherlink.com 1.10,2013-11-17 00:54:00,
2013-11-16 19:09:00,68.7,65.0,30.05,East,81,1.0,2.0,89,0.00,,,0.00,weatherlink.com 1.10,2013-11-17 01:09:00,
2013-11-16 19:24:00,68.5,66.0,30.05,East,86,0.0,2.0,90,0.00,,,0.00,weatherlink.com 1.10,2013-11-17 01:24:00,
2013-11-16 19:39:00,68.1,65.0,30.06,East,86,0.0,1.0,90,0.00,,,0.00,weatherlink.com 1.10,2013-11-17 01:39:00,
2013-11-16 19:54:00,67.3,65.0,30.07,East,86,0.0,0.0,91,0.00,,,0.00,weatherlink.com 1.10,2013-11-17 01:54:00,
2013-11-16 20:09:00,67.7,65.0,30.07,ESE,105,0.0,2.0,90,0.00,,,0.00,weatherlink.com 1.10,2013-11-17 02:09:00,
2013-11-16 20:24:00,67.7,65.0,30.06,ESE,109,3.0,3.0,90,0.00,,,0.00,weatherlink.com 1.10,2013-11-17 02:24:00,
2013-11-16 20:39:00,67.8,65.0,30.06,East,99,1.0,7.0,89,0.00,,,0.00,weatherlink.com 1.10,2013-11-17 02:39:00,
2013-11-16 20:54:00,67.3,64.0,30.06,ESE,105,3.0,5.0,89,0.00,,,0.00,weatherlink.com 1.10,2013-11-17 02:54:00,
2013-11-16 21:09:00,66.5,64.0,30.06,East,83,0.0,2.0,90,0.00,,,0.00,weatherlink.com 1.10,2013-11-17 03:09:00,
2013-11-16 21:24:00,66.0,64.0,30.07,East,89,2.0,2.0,92,0.00,,,0.00,weatherlink.com 1.10,2013-11-17 03:24:00,
2013-11-16 21:39:00,66.4,64.0,30.07,ENE,67,4.0,4.0,92,0.00,,,0.00,weatherlink.com 1.10,2013-11-17 03:39:00,
2013-11-16 21:54:00,66.5,64.0,30.07,East,94,2.0,4.0,91,0.00,,,0.00,weatherlink.com 1.10,2013-11-17 03:54:00,
2013-11-16 22:09:00,66.4,64.0,30.07,East,101,0.0,2.0,92,0.00,,,0.00,weatherlink.com 1.10,2013-11-17 04:09:00,
2013-11-16 22:24:00,66.4,64.0,30.07,East,96,0.0,3.0,92,0.00,,,0.00,weatherlink.com 1.10,2013-11-17 04:24:00,
2013-11-16 22:39:00,66.3,64.0,30.05,ESE,115,4.0,5.0,92,0.00,,,0.00,weatherlink.com 1.10,2013-11-17 04:39:00,
2013-11-16 22:54:00,66.5,64.0,30.05,ENE,62,4.0,7.0,92,0.00,,,0.00,weatherlink.com 1.10,2013-11-17 04:54:00,
2013-11-16 23:09:00,66.5,65.0,30.04,ENE,68,8.0,9.0,93,0.00,,,0.00,weatherlink.com 1.10,2013-11-17 05:09:00,
2013-11-16 23:24:00,66.4,65.0,30.04,East,96,4.0,6.0,94,0.00,,,0.00,weatherlink.com 1.10,2013-11-17 05:24:00,
2013-11-16 23:39:00,66.4,65.0,30.04,ESE,109,2.0,6.0,94,0.00,,,0.00,weatherlink.com 1.10,2013-11-17 05:39:00,
2013-11-16 23:54:00,66.6,65.0,30.03,East,82,3.0,5.0,94,0.00,,,0.00,weatherlink.com 1.10,2013-11-17 05:54:00,